sensor_id;sensor_type;location;lat;lon;timestamp;pressure;altitude;pressure_sealevel;temperature;humidity
33781;BME280;20097;50.832;19.100;2023-04-08T00:01:20;98531.81;;;3.27;100.00
33781;BME280;20097;50.832;19.100;2023-04-08T00:06:24;98517.94;;;3.28;100.00
33781;BME280;20097;50.832;19.100;2023-04-08T00:11:30;98523.47;;;3.23;100.00
33781;BME280;20097;50.832;19.100;2023-04-08T00:16:34;98521.16;;;3.20;100.00
33781;BME280;20097;50.832;19.100;2023-04-08T00:21:38;98525.41;;;3.10;100.00
33781;BME280;20097;50.832;19.100;2023-04-08T00:26:44;98526.09;;;3.12;100.00
33781;BME280;20097;50.832;19.100;2023-04-08T00:31:48;98529.59;;;3.11;100.00
33781;BME280;20097;50.832;19.100;2023-04-08T00:36:53;98531.25;;;3.12;100.00
33781;BME280;20097;50.832;19.100;2023-04-08T00:41:59;98529.59;;;3.11;100.00
33781;BME280;20097;50.832;19.100;2023-04-08T00:47:04;98550.00;;;3.03;100.00
33781;BME280;20097;50.832;19.100;2023-04-08T00:52:08;98541.81;;;2.98;100.00
33781;BME280;20097;50.832;19.100;2023-04-08T00:57:14;98560.00;;;2.97;100.00
33781;BME280;20097;50.832;19.100;2023-04-08T01:02:22;98560.00;;;2.97;100.00
33781;BME280;20097;50.832;19.100;2023-04-08T01:07:31;98571.38;;;2.83;100.00
33781;BME280;20097;50.832;19.100;2023-04-08T01:12:40;98568.69;;;2.85;100.00
33781;BME280;20097;50.832;19.100;2023-04-08T01:17:45;98562.13;;;2.80;100.00
33781;BME280;20097;50.832;19.100;2023-04-08T01:22:57;98574.78;;;2.61;100.00
33781;BME280;20097;50.832;19.100;2023-04-08T01:28:09;98560.25;;;2.49;100.00
33781;BME280;20097;50.832;19.100;2023-04-08T01:33:15;98567.63;;;2.43;100.00
33781;BME280;20097;50.832;19.100;2023-04-08T01:38:20;98566.81;;;2.42;100.00
33781;BME280;20097;50.832;19.100;2023-04-08T01:43:27;98565.88;;;2.43;100.00
33781;BME280;20097;50.832;19.100;2023-04-08T01:48:34;98565.28;;;2.40;100.00
33781;BME280;20097;50.832;19.100;2023-04-08T01:53:38;98573.38;;;2.46;100.00
33781;BME280;20097;50.832;19.100;2023-04-08T01:58:46;98583.09;;;2.32;100.00
33781;BME280;20097;50.832;19.100;2023-04-08T02:03:52;98578.88;;;2.31;100.00
33781;BME280;20097;50.832;19.100;2023-04-08T02:08:59;98575.84;;;2.37;100.00
33781;BME280;20097;50.832;19.100;2023-04-08T02:14:05;98573.84;;;2.40;100.00
33781;BME280;20097;50.832;19.100;2023-04-08T02:19:13;98580.03;;;2.38;100.00
33781;BME280;20097;50.832;19.100;2023-04-08T02:24:18;98568.22;;;2.46;100.00
33781;BME280;20097;50.832;19.100;2023-04-08T02:29:24;98581.34;;;2.43;100.00
33781;BME280;20097;50.832;19.100;2023-04-08T02:34:29;98581.94;;;2.47;100.00
33781;BME280;20097;50.832;19.100;2023-04-08T02:39:36;98578.41;;;2.48;100.00
33781;BME280;20097;50.832;19.100;2023-04-08T02:44:41;98577.97;;;2.65;100.00
33781;BME280;20097;50.832;19.100;2023-04-08T02:49:45;98582.97;;;2.55;100.00
33781;BME280;20097;50.832;19.100;2023-04-08T02:54:49;98593.06;;;2.58;100.00
33781;BME280;20097;50.832;19.100;2023-04-08T02:59:55;98595.06;;;2.55;100.00
33781;BME280;20097;50.832;19.100;2023-04-08T03:04:59;98601.94;;;2.65;100.00
33781;BME280;20097;50.832;19.100;2023-04-08T03:10:03;98605.25;;;2.67;100.00
33781;BME280;20097;50.832;19.100;2023-04-08T03:15:10;98601.34;;;2.62;100.00
33781;BME280;20097;50.832;19.100;2023-04-08T03:20:14;98603.13;;;2.61;100.00
33781;BME280;20097;50.832;19.100;2023-04-08T03:25:18;98604.06;;;2.60;100.00
33781;BME280;20097;50.832;19.100;2023-04-08T03:30:24;98611.66;;;2.62;100.00
33781;BME280;20097;50.832;19.100;2023-04-08T03:35:28;98620.56;;;2.58;100.00
33781;BME280;20097;50.832;19.100;2023-04-08T03:40:33;98621.16;;;2.61;100.00
33781;BME280;20097;50.832;19.100;2023-04-08T03:45:38;98623.50;;;2.53;100.00
33781;BME280;20097;50.832;19.100;2023-04-08T03:50:42;98625.38;;;2.51;100.00
33781;BME280;20097;50.832;19.100;2023-04-08T03:55:47;98630.66;;;2.61;100.00
33781;BME280;20097;50.832;19.100;2023-04-08T04:00:53;98635.69;;;2.62;100.00
33781;BME280;20097;50.832;19.100;2023-04-08T04:05:57;98637.91;;;2.56;100.00
33781;BME280;20097;50.832;19.100;2023-04-08T04:11:01;98638.25;;;2.62;100.00
33781;BME280;20097;50.832;19.100;2023-04-08T04:16:06;98641.56;;;2.64;100.00
33781;BME280;20097;50.832;19.100;2023-04-08T04:21:11;98647.31;;;2.68;100.00
33781;BME280;20097;50.832;19.100;2023-04-08T04:26:15;98651.38;;;2.70;100.00
33781;BME280;20097;50.832;19.100;2023-04-08T04:31:21;98650.00;;;2.66;100.00
33781;BME280;20097;50.832;19.100;2023-04-08T04:36:28;98663.44;;;2.70;100.00
33781;BME280;20097;50.832;19.100;2023-04-08T04:41:34;98661.56;;;2.72;100.00
33781;BME280;20097;50.832;19.100;2023-04-08T04:46:43;98673.88;;;2.68;100.00
33781;BME280;20097;50.832;19.100;2023-04-08T04:51:47;98687.13;;;2.75;100.00
33781;BME280;20097;50.832;19.100;2023-04-08T04:56:52;98687.22;;;2.73;100.00
33781;BME280;20097;50.832;19.100;2023-04-08T05:01:57;98688.41;;;2.69;100.00
33781;BME280;20097;50.832;19.100;2023-04-08T05:07:01;98690.16;;;2.69;100.00
33781;BME280;20097;50.832;19.100;2023-04-08T05:12:05;98695.31;;;2.69;100.00
33781;BME280;20097;50.832;19.100;2023-04-08T05:17:11;98699.31;;;2.73;100.00
33781;BME280;20097;50.832;19.100;2023-04-08T05:22:15;98699.56;;;2.81;100.00
33781;BME280;20097;50.832;19.100;2023-04-08T05:27:19;98718.28;;;2.83;100.00
33781;BME280;20097;50.832;19.100;2023-04-08T05:32:25;98722.53;;;2.84;100.00
33781;BME280;20097;50.832;19.100;2023-04-08T05:37:28;98717.97;;;2.99;100.00
33781;BME280;20097;50.832;19.100;2023-04-08T05:42:33;98725.81;;;3.08;100.00
33781;BME280;20097;50.832;19.100;2023-04-08T05:47:39;98729.91;;;3.11;100.00
33781;BME280;20097;50.832;19.100;2023-04-08T05:52:43;98729.22;;;3.31;100.00
33781;BME280;20097;50.832;19.100;2023-04-08T05:57:48;98737.78;;;3.31;100.00
33781;BME280;20097;50.832;19.100;2023-04-08T06:02:53;98746.56;;;3.29;100.00
33781;BME280;20097;50.832;19.100;2023-04-08T06:07:57;98749.63;;;3.34;100.00
33781;BME280;20097;50.832;19.100;2023-04-08T06:13:01;98762.75;;;3.42;100.00
33781;BME280;20097;50.832;19.100;2023-04-08T06:18:07;98772.25;;;3.30;100.00
33781;BME280;20097;50.832;19.100;2023-04-08T06:23:11;98776.59;;;3.52;100.00
33781;BME280;20097;50.832;19.100;2023-04-08T06:28:16;98780.47;;;3.68;100.00
33781;BME280;20097;50.832;19.100;2023-04-08T06:33:21;98788.06;;;3.92;100.00
33781;BME280;20097;50.832;19.100;2023-04-08T06:38:26;98782.06;;;4.02;100.00
33781;BME280;20097;50.832;19.100;2023-04-08T06:43:30;98796.34;;;4.17;100.00
33781;BME280;20097;50.832;19.100;2023-04-08T06:48:36;98791.22;;;4.38;100.00
33781;BME280;20097;50.832;19.100;2023-04-08T06:53:41;98793.63;;;4.62;100.00
33781;BME280;20097;50.832;19.100;2023-04-08T06:58:44;98794.13;;;4.76;100.00
33781;BME280;20097;50.832;19.100;2023-04-08T07:03:50;98790.22;;;4.82;100.00
33781;BME280;20097;50.832;19.100;2023-04-08T07:08:55;98792.34;;;4.77;100.00
33781;BME280;20097;50.832;19.100;2023-04-08T07:13:59;98798.94;;;4.81;100.00
33781;BME280;20097;50.832;19.100;2023-04-08T07:19:04;98809.09;;;5.14;100.00
33781;BME280;20097;50.832;19.100;2023-04-08T07:24:08;98814.28;;;5.14;100.00
33781;BME280;20097;50.832;19.100;2023-04-08T07:29:12;98816.97;;;5.33;100.00
33781;BME280;20097;50.832;19.100;2023-04-08T07:34:18;98821.78;;;5.47;100.00
33781;BME280;20097;50.832;19.100;2023-04-08T07:39:22;98822.38;;;5.50;100.00
33781;BME280;20097;50.832;19.100;2023-04-08T07:44:26;98836.16;;;5.30;100.00
33781;BME280;20097;50.832;19.100;2023-04-08T07:49:32;98833.56;;;5.10;100.00
33781;BME280;20097;50.832;19.100;2023-04-08T07:54:36;98842.59;;;5.36;100.00
33781;BME280;20097;50.832;19.100;2023-04-08T07:59:40;98841.06;;;5.54;100.00
33781;BME280;20097;50.832;19.100;2023-04-08T08:04:46;98843.47;;;5.97;100.00
33781;BME280;20097;50.832;19.100;2023-04-08T08:09:50;98852.25;;;5.85;100.00
33781;BME280;20097;50.832;19.100;2023-04-08T08:14:54;98855.47;;;6.07;100.00
33781;BME280;20097;50.832;19.100;2023-04-08T08:20:02;98845.91;;;5.98;100.00
33781;BME280;20097;50.832;19.100;2023-04-08T08:25:07;98859.38;;;5.92;100.00
33781;BME280;20097;50.832;19.100;2023-04-08T08:30:12;98869.19;;;6.38;100.00
33781;BME280;20097;50.832;19.100;2023-04-08T08:35:18;98865.31;;;6.91;100.00
33781;BME280;20097;50.832;19.100;2023-04-08T08:40:22;98861.34;;;6.87;100.00
33781;BME280;20097;50.832;19.100;2023-04-08T08:45:26;98865.44;;;6.80;100.00
33781;BME280;20097;50.832;19.100;2023-04-08T08:50:31;98862.69;;;7.20;100.00
33781;BME280;20097;50.832;19.100;2023-04-08T08:55:36;98867.47;;;7.24;100.00
33781;BME280;20097;50.832;19.100;2023-04-08T09:01:01;98877.97;;;7.51;100.00
33781;BME280;20097;50.832;19.100;2023-04-08T09:06:06;98880.38;;;7.62;100.00
33781;BME280;20097;50.832;19.100;2023-04-08T09:11:13;98874.84;;;7.38;100.00
33781;BME280;20097;50.832;19.100;2023-04-08T09:16:18;98889.56;;;7.57;100.00
33781;BME280;20097;50.832;19.100;2023-04-08T09:21:26;98901.91;;;7.26;100.00
33781;BME280;20097;50.832;19.100;2023-04-08T09:26:32;98901.75;;;6.89;100.00
33781;BME280;20097;50.832;19.100;2023-04-08T09:31:38;98899.00;;;7.58;100.00
33781;BME280;20097;50.832;19.100;2023-04-08T09:36:44;98910.88;;;8.06;100.00
33781;BME280;20097;50.832;19.100;2023-04-08T09:41:50;98908.66;;;7.75;100.00
33781;BME280;20097;50.832;19.100;2023-04-08T09:46:59;98913.44;;;7.70;100.00
33781;BME280;20097;50.832;19.100;2023-04-08T09:52:06;98906.50;;;8.07;100.00
33781;BME280;20097;50.832;19.100;2023-04-08T09:57:13;98917.38;;;8.29;100.00
33781;BME280;20097;50.832;19.100;2023-04-08T10:02:26;98919.03;;;8.75;100.00
33781;BME280;20097;50.832;19.100;2023-04-08T10:07:35;98920.63;;;9.21;99.43
33781;BME280;20097;50.832;19.100;2023-04-08T10:12:39;98920.19;;;8.90;94.56
33781;BME280;20097;50.832;19.100;2023-04-08T10:17:44;98910.28;;;9.29;95.18
33781;BME280;20097;50.832;19.100;2023-04-08T10:22:49;98912.22;;;9.96;95.15
33781;BME280;20097;50.832;19.100;2023-04-08T10:27:54;98914.97;;;10.20;90.31
33781;BME280;20097;50.832;19.100;2023-04-08T10:32:58;98915.38;;;10.07;88.48
33781;BME280;20097;50.832;19.100;2023-04-08T10:38:04;98917.31;;;10.05;86.06
33781;BME280;20097;50.832;19.100;2023-04-08T10:43:11;98909.44;;;10.15;88.53
33781;BME280;20097;50.832;19.100;2023-04-08T10:48:17;98906.47;;;10.10;82.66
33781;BME280;20097;50.832;19.100;2023-04-08T10:53:27;98907.03;;;10.04;83.81
33781;BME280;20097;50.832;19.100;2023-04-08T10:58:32;98909.94;;;10.60;84.51
33781;BME280;20097;50.832;19.100;2023-04-08T11:03:36;98906.50;;;10.18;79.76
33781;BME280;20097;50.832;19.100;2023-04-08T11:08:42;98903.53;;;10.13;82.00
33781;BME280;20097;50.832;19.100;2023-04-08T11:13:46;98918.75;;;10.67;82.35
33781;BME280;20097;50.832;19.100;2023-04-08T11:18:55;98913.41;;;10.84;80.33
33781;BME280;20097;50.832;19.100;2023-04-08T11:24:05;98920.84;;;10.22;79.97
33781;BME280;20097;50.832;19.100;2023-04-08T11:29:10;98914.06;;;10.03;82.52
33781;BME280;20097;50.832;19.100;2023-04-08T11:34:21;98923.56;;;9.61;85.26
33781;BME280;20097;50.832;19.100;2023-04-08T11:39:28;98920.81;;;9.88;87.64
33781;BME280;20097;50.832;19.100;2023-04-08T11:44:32;98916.63;;;9.95;85.50
33781;BME280;20097;50.832;19.100;2023-04-08T11:49:43;98924.81;;;10.26;87.03
33781;BME280;20097;50.832;19.100;2023-04-08T11:54:49;98923.34;;;9.54;89.51
33781;BME280;20097;50.832;19.100;2023-04-08T11:59:53;98919.34;;;10.11;94.79
33781;BME280;20097;50.832;19.100;2023-04-08T12:04:57;98911.00;;;10.08;94.44
33781;BME280;20097;50.832;19.100;2023-04-08T12:10:03;98911.47;;;10.37;91.73
33781;BME280;20097;50.832;19.100;2023-04-08T12:15:08;98907.91;;;10.46;91.30
33781;BME280;20097;50.832;19.100;2023-04-08T12:20:12;98916.72;;;10.45;90.78
33781;BME280;20097;50.832;19.100;2023-04-08T12:25:20;98918.28;;;10.30;91.65
33781;BME280;20097;50.832;19.100;2023-04-08T12:30:24;98907.97;;;10.20;94.25
33781;BME280;20097;50.832;19.100;2023-04-08T12:35:28;98906.72;;;10.32;93.97
33781;BME280;20097;50.832;19.100;2023-04-08T12:40:34;98910.66;;;9.77;93.28
33781;BME280;20097;50.832;19.100;2023-04-08T12:45:38;98910.41;;;9.96;95.12
33781;BME280;20097;50.832;19.100;2023-04-08T12:50:42;98906.91;;;10.39;95.27
33781;BME280;20097;50.832;19.100;2023-04-08T12:55:48;98898.09;;;10.06;92.50
33781;BME280;20097;50.832;19.100;2023-04-08T13:00:53;98895.94;;;10.27;92.86
33781;BME280;20097;50.832;19.100;2023-04-08T13:05:57;98906.00;;;10.64;92.37
33781;BME280;20097;50.832;19.100;2023-04-08T13:11:03;98900.91;;;10.46;89.60
33781;BME280;20097;50.832;19.100;2023-04-08T13:16:07;98902.72;;;10.54;92.84
33781;BME280;20097;50.832;19.100;2023-04-08T13:21:11;98900.84;;;10.30;89.46
33781;BME280;20097;50.832;19.100;2023-04-08T13:26:17;98894.50;;;10.41;90.53
33781;BME280;20097;50.832;19.100;2023-04-08T13:31:21;98887.78;;;10.30;89.20
33781;BME280;20097;50.832;19.100;2023-04-08T13:36:25;98888.50;;;10.40;89.97
33781;BME280;20097;50.832;19.100;2023-04-08T13:41:32;98883.41;;;10.31;89.21
33781;BME280;20097;50.832;19.100;2023-04-08T13:46:36;98891.53;;;10.28;90.44
33781;BME280;20097;50.832;19.100;2023-04-08T13:51:41;98888.84;;;10.12;92.05
33781;BME280;20097;50.832;19.100;2023-04-08T13:56:47;98887.06;;;10.12;91.01
33781;BME280;20097;50.832;19.100;2023-04-08T14:01:51;98889.59;;;10.38;92.06
33781;BME280;20097;50.832;19.100;2023-04-08T14:06:57;98890.56;;;10.29;90.48
33781;BME280;20097;50.832;19.100;2023-04-08T14:12:02;98887.22;;;10.52;90.28
33781;BME280;20097;50.832;19.100;2023-04-08T14:17:06;98881.22;;;10.60;87.70
33781;BME280;20097;50.832;19.100;2023-04-08T14:22:10;98878.97;;;10.31;91.44
33781;BME280;20097;50.832;19.100;2023-04-08T14:27:17;98870.50;;;10.04;91.66
33781;BME280;20097;50.832;19.100;2023-04-08T14:32:21;98880.19;;;9.86;93.85
33781;BME280;20097;50.832;19.100;2023-04-08T14:37:25;98882.16;;;9.84;98.12
33781;BME280;20097;50.832;19.100;2023-04-08T14:42:31;98875.09;;;9.76;100.00
33781;BME280;20097;50.832;19.100;2023-04-08T14:47:38;98880.72;;;9.63;100.00
33781;BME280;20097;50.832;19.100;2023-04-08T14:52:42;98874.38;;;9.40;100.00
33781;BME280;20097;50.832;19.100;2023-04-08T14:57:51;98876.25;;;9.30;100.00
33781;BME280;20097;50.832;19.100;2023-04-08T15:02:55;98876.03;;;9.24;100.00
33781;BME280;20097;50.832;19.100;2023-04-08T15:07:59;98881.88;;;9.00;100.00
33781;BME280;20097;50.832;19.100;2023-04-08T15:13:05;98883.13;;;8.96;100.00
33781;BME280;20097;50.832;19.100;2023-04-08T15:18:09;98898.50;;;8.72;100.00
33781;BME280;20097;50.832;19.100;2023-04-08T15:23:13;98898.56;;;8.63;100.00
33781;BME280;20097;50.832;19.100;2023-04-08T15:28:18;98913.56;;;8.51;100.00
33781;BME280;20097;50.832;19.100;2023-04-08T15:33:22;98910.03;;;8.43;100.00
33781;BME280;20097;50.832;19.100;2023-04-08T15:38:27;98899.50;;;8.44;100.00
33781;BME280;20097;50.832;19.100;2023-04-08T15:43:33;98904.34;;;8.39;100.00
33781;BME280;20097;50.832;19.100;2023-04-08T15:48:38;98904.69;;;8.17;100.00
33781;BME280;20097;50.832;19.100;2023-04-08T15:53:44;98910.34;;;8.03;100.00
33781;BME280;20097;50.832;19.100;2023-04-08T15:58:50;98899.75;;;8.14;100.00
33781;BME280;20097;50.832;19.100;2023-04-08T16:03:55;98911.78;;;8.15;100.00
33781;BME280;20097;50.832;19.100;2023-04-08T16:08:59;98917.97;;;8.14;100.00
33781;BME280;20097;50.832;19.100;2023-04-08T16:14:05;98921.28;;;8.06;100.00
33781;BME280;20097;50.832;19.100;2023-04-08T16:19:09;98921.69;;;8.02;100.00
33781;BME280;20097;50.832;19.100;2023-04-08T16:24:14;98923.25;;;7.95;100.00
33781;BME280;20097;50.832;19.100;2023-04-08T16:29:19;98918.06;;;7.85;100.00
33781;BME280;20097;50.832;19.100;2023-04-08T16:34:24;98925.31;;;7.91;100.00
33781;BME280;20097;50.832;19.100;2023-04-08T16:39:28;98924.75;;;7.88;100.00
33781;BME280;20097;50.832;19.100;2023-04-08T16:44:34;98914.78;;;7.83;100.00
33781;BME280;20097;50.832;19.100;2023-04-08T16:49:38;98924.25;;;7.75;100.00
33781;BME280;20097;50.832;19.100;2023-04-08T16:54:42;98915.09;;;7.71;100.00
33781;BME280;20097;50.832;19.100;2023-04-08T16:59:49;98921.09;;;7.71;100.00
33781;BME280;20097;50.832;19.100;2023-04-08T17:04:53;98920.03;;;7.64;100.00
33781;BME280;20097;50.832;19.100;2023-04-08T17:09:57;98924.97;;;7.58;100.00
33781;BME280;20097;50.832;19.100;2023-04-08T17:15:02;98923.47;;;7.55;100.00
33781;BME280;20097;50.832;19.100;2023-04-08T17:20:07;98940.03;;;7.45;100.00
33781;BME280;20097;50.832;19.100;2023-04-08T17:25:12;98938.94;;;7.38;100.00
33781;BME280;20097;50.832;19.100;2023-04-08T17:30:17;98934.81;;;7.35;100.00
33781;BME280;20097;50.832;19.100;2023-04-08T17:35:21;98940.41;;;7.40;100.00
33781;BME280;20097;50.832;19.100;2023-04-08T17:40:26;98942.47;;;7.37;100.00
33781;BME280;20097;50.832;19.100;2023-04-08T17:45:31;98947.38;;;7.30;100.00
33781;BME280;20097;50.832;19.100;2023-04-08T17:50:35;98952.34;;;7.24;100.00
33781;BME280;20097;50.832;19.100;2023-04-08T17:55:39;98953.84;;;7.17;100.00
33781;BME280;20097;50.832;19.100;2023-04-08T18:00:45;98951.91;;;7.09;100.00
33781;BME280;20097;50.832;19.100;2023-04-08T18:05:50;98961.22;;;7.12;100.00
33781;BME280;20097;50.832;19.100;2023-04-08T18:10:56;98974.88;;;7.14;100.00
33781;BME280;20097;50.832;19.100;2023-04-08T18:16:02;98989.34;;;7.16;100.00
33781;BME280;20097;50.832;19.100;2023-04-08T18:21:06;98984.28;;;7.15;100.00
33781;BME280;20097;50.832;19.100;2023-04-08T18:26:11;98977.19;;;7.17;100.00
33781;BME280;20097;50.832;19.100;2023-04-08T18:31:16;98980.72;;;7.16;100.00
33781;BME280;20097;50.832;19.100;2023-04-08T18:36:20;98990.84;;;7.09;100.00
33781;BME280;20097;50.832;19.100;2023-04-08T18:41:25;98982.63;;;6.94;100.00
33781;BME280;20097;50.832;19.100;2023-04-08T18:46:31;98986.31;;;6.82;100.00
33781;BME280;20097;50.832;19.100;2023-04-08T18:51:35;98995.28;;;6.78;100.00
33781;BME280;20097;50.832;19.100;2023-04-08T18:56:42;98998.16;;;6.85;100.00
33781;BME280;20097;50.832;19.100;2023-04-08T19:01:48;98980.69;;;6.87;100.00
33781;BME280;20097;50.832;19.100;2023-04-08T19:06:52;98988.59;;;6.76;100.00
33781;BME280;20097;50.832;19.100;2023-04-08T19:11:56;98984.06;;;6.68;100.00
33781;BME280;20097;50.832;19.100;2023-04-08T19:17:02;98980.25;;;6.63;100.00
33781;BME280;20097;50.832;19.100;2023-04-08T19:22:06;98988.84;;;6.63;100.00
33781;BME280;20097;50.832;19.100;2023-04-08T19:27:09;98978.03;;;6.58;100.00
33781;BME280;20097;50.832;19.100;2023-04-08T19:32:17;98978.47;;;6.63;100.00
33781;BME280;20097;50.832;19.100;2023-04-08T19:37:21;98978.47;;;6.63;100.00
33781;BME280;20097;50.832;19.100;2023-04-08T19:42:25;98989.22;;;6.59;100.00
33781;BME280;20097;50.832;19.100;2023-04-08T19:47:31;98987.19;;;6.62;100.00
33781;BME280;20097;50.832;19.100;2023-04-08T19:52:35;98981.16;;;6.62;100.00
33781;BME280;20097;50.832;19.100;2023-04-08T19:57:40;98984.31;;;6.65;100.00
33781;BME280;20097;50.832;19.100;2023-04-08T20:02:45;98983.66;;;6.63;100.00
33781;BME280;20097;50.832;19.100;2023-04-08T20:07:49;98983.31;;;6.47;100.00
33781;BME280;20097;50.832;19.100;2023-04-08T20:12:53;98975.13;;;6.42;100.00
33781;BME280;20097;50.832;19.100;2023-04-08T20:17:59;98979.50;;;6.51;100.00
33781;BME280;20097;50.832;19.100;2023-04-08T20:23:03;98980.41;;;6.41;100.00
33781;BME280;20097;50.832;19.100;2023-04-08T20:28:07;98976.66;;;6.54;100.00
33781;BME280;20097;50.832;19.100;2023-04-08T20:33:13;98978.28;;;6.55;100.00
33781;BME280;20097;50.832;19.100;2023-04-08T20:38:16;98977.09;;;6.59;100.00
33781;BME280;20097;50.832;19.100;2023-04-08T20:43:21;98974.22;;;6.62;100.00
33781;BME280;20097;50.832;19.100;2023-04-08T20:48:26;98974.88;;;6.55;100.00
33781;BME280;20097;50.832;19.100;2023-04-08T20:53:31;98974.88;;;6.45;100.00
33781;BME280;20097;50.832;19.100;2023-04-08T20:58:36;98967.22;;;6.44;100.00
33781;BME280;20097;50.832;19.100;2023-04-08T21:03:41;98974.25;;;6.32;100.00
33781;BME280;20097;50.832;19.100;2023-04-08T21:08:46;98976.03;;;6.32;100.00
33781;BME280;20097;50.832;19.100;2023-04-08T21:13:50;98975.47;;;6.28;100.00
33781;BME280;20097;50.832;19.100;2023-04-08T21:18:56;98973.25;;;6.24;100.00
33781;BME280;20097;50.832;19.100;2023-04-08T21:24:03;98983.78;;;6.22;100.00
33781;BME280;20097;50.832;19.100;2023-04-08T21:29:09;98971.13;;;6.08;100.00
33781;BME280;20097;50.832;19.100;2023-04-08T21:34:15;98977.59;;;6.14;100.00
33781;BME280;20097;50.832;19.100;2023-04-08T21:39:19;98982.31;;;6.09;100.00
33781;BME280;20097;50.832;19.100;2023-04-08T21:44:24;98985.63;;;6.11;100.00
33781;BME280;20097;50.832;19.100;2023-04-08T21:49:29;98985.09;;;6.17;100.00
33781;BME280;20097;50.832;19.100;2023-04-08T21:54:33;98985.47;;;6.12;100.00
33781;BME280;20097;50.832;19.100;2023-04-08T21:59:38;98973.06;;;6.06;100.00
33781;BME280;20097;50.832;19.100;2023-04-08T22:04:43;98982.16;;;6.01;100.00
33781;BME280;20097;50.832;19.100;2023-04-08T22:09:48;98978.72;;;6.00;100.00
33781;BME280;20097;50.832;19.100;2023-04-08T22:14:52;98981.00;;;6.14;100.00
33781;BME280;20097;50.832;19.100;2023-04-08T22:19:58;98988.69;;;6.25;100.00
33781;BME280;20097;50.832;19.100;2023-04-08T22:25:02;98985.56;;;6.31;100.00
33781;BME280;20097;50.832;19.100;2023-04-08T22:30:07;98986.97;;;6.35;100.00
33781;BME280;20097;50.832;19.100;2023-04-08T22:35:12;98984.50;;;6.34;100.00
33781;BME280;20097;50.832;19.100;2023-04-08T22:40:17;98983.84;;;6.41;100.00
33781;BME280;20097;50.832;19.100;2023-04-08T22:45:21;98994.91;;;6.43;100.00
33781;BME280;20097;50.832;19.100;2023-04-08T22:50:26;98983.72;;;6.43;100.00
33781;BME280;20097;50.832;19.100;2023-04-08T22:55:30;98984.41;;;6.45;100.00
33781;BME280;20097;50.832;19.100;2023-04-08T23:00:34;98978.63;;;6.32;100.00
33781;BME280;20097;50.832;19.100;2023-04-08T23:05:40;98999.38;;;6.32;100.00
33781;BME280;20097;50.832;19.100;2023-04-08T23:10:44;98995.44;;;6.37;100.00
33781;BME280;20097;50.832;19.100;2023-04-08T23:15:48;98980.75;;;6.17;100.00
33781;BME280;20097;50.832;19.100;2023-04-08T23:20:54;98977.66;;;6.03;100.00
33781;BME280;20097;50.832;19.100;2023-04-08T23:25:58;98989.41;;;6.07;100.00
33781;BME280;20097;50.832;19.100;2023-04-08T23:31:02;98993.25;;;6.12;100.00
33781;BME280;20097;50.832;19.100;2023-04-08T23:36:09;98982.38;;;6.18;100.00
33781;BME280;20097;50.832;19.100;2023-04-08T23:41:13;98994.88;;;6.13;100.00
33781;BME280;20097;50.832;19.100;2023-04-08T23:46:18;98994.22;;;6.11;100.00
33781;BME280;20097;50.832;19.100;2023-04-08T23:51:23;98995.72;;;6.14;100.00
33781;BME280;20097;50.832;19.100;2023-04-08T23:56:27;98994.41;;;6.19;100.00
